createdAt,value
2022-10-18T00:02:10.315Z,48.20
2022-10-18T00:05:17.866Z,49.35
2022-10-18T00:08:22.389Z,54.03
2022-10-18T00:11:27.017Z,48.58
2022-10-18T00:14:32.867Z,55.55
2022-10-18T00:17:40.667Z,60.58
2022-10-18T00:20:51.550Z,51.42
2022-10-18T00:23:56.481Z,54.72
2022-10-18T00:27:11.456Z,70.35
2022-10-18T00:30:26.870Z,79.18
2022-10-18T00:36:52.368Z,108.20
2022-10-18T00:43:22.645Z,115.35
2022-10-18T00:46:34.113Z,94.75
2022-10-18T00:49:48.469Z,92.90
2022-10-18T00:59:45.358Z,85.25
2022-10-18T01:02:52.546Z,85.95
2022-10-18T01:05:57.384Z,71.75
2022-10-18T01:09:31.096Z,60.45
2022-10-18T01:13:15.254Z,63.88
2022-10-18T01:16:43.283Z,65.95
2022-10-18T01:23:12.769Z,76.35
2022-10-18T01:33:39.977Z,98.80
2022-10-18T01:36:54.934Z,93.22
2022-10-18T01:40:05.814Z,94.72
2022-10-18T01:43:13.949Z,87.65
2022-10-18T01:46:24.076Z,105.97
2022-10-18T01:49:29.252Z,90.50
2022-10-18T01:52:35.491Z,95.88
2022-10-18T01:55:50.499Z,93.25
2022-10-18T01:59:10.548Z,77.72
2022-10-18T02:06:42.479Z,90.18
2022-10-18T02:09:56.950Z,82.57
2022-10-18T02:13:04.004Z,79.38
2022-10-18T02:16:20.049Z,79.55
2022-10-18T02:19:41.566Z,67.25
2022-10-18T02:22:46.775Z,66.13
2022-10-18T02:25:51.152Z,60.25
2022-10-18T02:28:55.347Z,56.38
2022-10-18T02:32:10.214Z,51.17
2022-10-18T02:35:21.098Z,59.78
2022-10-18T02:38:26.806Z,56.60
2022-10-18T02:41:31.925Z,54.80
2022-10-18T02:44:36.256Z,46.65
2022-10-18T02:47:40.093Z,45.97
2022-10-18T02:50:43.813Z,61.03
2022-10-18T02:53:47.447Z,43.88
2022-10-18T02:56:51.755Z,59.92
2022-10-18T02:59:55.454Z,60.00
2022-10-18T03:02:59.005Z,61.30
2022-10-18T03:06:02.746Z,64.50
2022-10-18T03:09:07.507Z,49.00
2022-10-18T03:12:10.961Z,59.80
2022-10-18T03:15:15.227Z,50.72
2022-10-18T03:18:19.064Z,46.90
2022-10-18T03:21:23.546Z,43.97
2022-10-18T03:24:27.238Z,41.05
2022-10-18T03:27:30.811Z,37.10
2022-10-18T03:30:34.781Z,36.63
2022-10-18T03:33:38.873Z,45.80
2022-10-18T03:36:42.322Z,54.63
2022-10-18T03:39:47.089Z,51.42
2022-10-18T03:42:50.659Z,59.90
2022-10-18T03:45:54.614Z,49.30
2022-10-18T03:48:58.864Z,41.95
2022-10-18T03:52:04.493Z,45.67
2022-10-18T03:55:08.394Z,53.67
2022-10-18T03:58:12.633Z,49.05
2022-10-18T04:01:16.379Z,48.53
2022-10-18T04:04:20.538Z,53.15
2022-10-18T04:07:23.545Z,54.72
2022-10-18T04:10:28.232Z,57.17
2022-10-18T04:13:32.651Z,72.97
2022-10-18T04:19:45.778Z,65.05
2022-10-18T04:22:50.895Z,52.88
2022-10-18T04:25:54.866Z,49.30
2022-10-18T04:28:59.164Z,63.00
2022-10-18T04:32:03.493Z,52.88
2022-10-18T04:35:08.800Z,61.83
2022-10-18T04:38:12.511Z,60.58
2022-10-18T04:41:16.984Z,56.85
2022-10-18T04:44:20.827Z,69.57
2022-10-18T04:47:25.329Z,59.97
2022-10-18T04:50:29.634Z,60.30
2022-10-18T04:53:34.369Z,66.38
2022-10-18T04:56:39.188Z,52.20
2022-10-18T04:59:42.669Z,67.07
2022-10-18T05:02:46.886Z,53.65
2022-10-18T05:06:01.268Z,57.03
2022-10-18T05:09:06.898Z,56.70
2022-10-18T05:12:11.672Z,51.95
2022-10-18T05:15:16.021Z,53.45
2022-10-18T05:18:20.429Z,58.03
2022-10-18T05:21:25.413Z,64.28
2022-10-18T05:24:29.775Z,50.75
2022-10-18T05:27:33.867Z,54.67
2022-10-18T05:30:42.248Z,54.05
2022-10-18T05:33:46.323Z,63.45
2022-10-18T05:36:52.896Z,55.22
2022-10-18T05:39:56.246Z,57.85
2022-10-18T05:43:00.705Z,54.47
2022-10-18T05:46:07.191Z,67.43
2022-10-18T05:49:14.478Z,63.53
2022-10-18T05:52:18.726Z,68.43
2022-10-18T05:55:23.175Z,68.72
2022-10-18T05:58:27.232Z,66.60
2022-10-18T06:01:30.960Z,58.28
2022-10-18T06:04:35.636Z,66.85
2022-10-18T06:07:39.446Z,76.68
2022-10-18T06:10:42.863Z,61.53
2022-10-18T06:13:52.013Z,63.63
2022-10-18T06:16:57.667Z,57.92
2022-10-18T06:20:01.585Z,61.88
2022-10-18T06:23:05.379Z,57.78
2022-10-18T06:26:11.164Z,62.72
2022-10-18T06:29:15.162Z,65.97
2022-10-18T06:32:19.214Z,60.53
2022-10-18T06:35:22.194Z,74.32
2022-10-18T06:38:25.630Z,56.38
2022-10-18T06:41:29.057Z,67.55
2022-10-18T06:44:38.783Z,60.90
2022-10-18T06:47:41.865Z,76.78
2022-10-18T06:50:53.507Z,73.25
2022-10-18T06:54:16.976Z,66.20
2022-10-18T06:57:22.587Z,53.88
2022-10-18T07:00:25.917Z,68.00
2022-10-18T07:03:30.193Z,68.13
2022-10-18T07:06:34.437Z,75.95
2022-10-18T07:09:38.751Z,68.60
2022-10-18T07:12:42.645Z,59.25
2022-10-18T07:15:46.385Z,71.03
2022-10-18T07:18:52.354Z,72.90
2022-10-18T07:21:55.858Z,70.82
2022-10-18T07:24:59.305Z,87.28
2022-10-18T07:28:03.980Z,73.15
2022-10-18T07:31:09.414Z,75.30
2022-10-18T07:34:16.541Z,68.13
2022-10-18T07:37:20.317Z,69.75
2022-10-18T07:40:24.255Z,70.55
2022-10-18T07:43:29.151Z,70.43
2022-10-18T07:46:34.016Z,73.80
2022-10-18T07:49:38.432Z,80.35
2022-10-18T07:52:42.769Z,74.55
2022-10-18T07:55:46.055Z,73.53
2022-10-18T07:58:55.161Z,81.45
2022-10-18T08:01:58.683Z,69.70
2022-10-18T08:05:03.453Z,73.43
2022-10-18T08:08:08.176Z,70.03
2022-10-18T08:11:22.334Z,80.25
2022-10-18T08:14:26.620Z,67.30
2022-10-18T08:17:31.590Z,64.47
2022-10-18T08:20:37.559Z,68.97
2022-10-18T08:23:42.360Z,58.10
2022-10-18T08:26:46.830Z,70.80
2022-10-18T08:29:50.355Z,61.70
2022-10-18T08:32:54.458Z,67.53
2022-10-18T08:36:02.401Z,69.80
2022-10-18T08:39:07.426Z,56.88
2022-10-18T08:42:29.806Z,68.95
2022-10-18T08:45:42.522Z,60.13
2022-10-18T08:48:52.374Z,70.57
2022-10-18T08:51:57.233Z,60.47
2022-10-18T08:55:12.325Z,68.43
2022-10-18T08:58:27.494Z,58.78
2022-10-18T09:02:02.911Z,60.65
2022-10-18T09:05:30.349Z,59.33
2022-10-18T09:09:04.388Z,63.90
2022-10-18T09:12:43.504Z,64.82
2022-10-18T09:15:50.891Z,46.83
2022-10-18T09:19:14.724Z,49.30
2022-10-18T09:22:20.414Z,58.00
2022-10-18T09:25:38.091Z,70.80
2022-10-18T09:28:44.806Z,83.25
2022-10-18T09:32:27.705Z,79.38
2022-10-18T09:36:01.781Z,80.28
2022-10-18T09:39:15.417Z,73.20
2022-10-18T09:42:29.671Z,83.65
2022-10-18T09:45:35.366Z,80.82
2022-10-18T09:48:51.337Z,76.10
2022-10-18T09:51:55.178Z,61.17
2022-10-18T09:55:06.910Z,66.75
2022-10-18T09:58:14.310Z,65.15
2022-10-18T10:01:21.940Z,61.22
2022-10-18T10:04:25.558Z,69.47
2022-10-18T10:07:35.336Z,61.00
2022-10-18T10:10:47.895Z,69.78
2022-10-18T10:13:51.142Z,72.15
2022-10-18T10:17:06.304Z,64.00
2022-10-18T10:20:23.443Z,67.90
2022-10-18T10:23:40.275Z,58.17
2022-10-18T10:26:44.365Z,51.15
2022-10-18T10:29:49.313Z,47.70
2022-10-18T10:32:54.727Z,50.03
2022-10-18T10:36:03.555Z,47.47
2022-10-18T10:39:20.016Z,48.35
2022-10-18T10:42:23.509Z,49.97
2022-10-18T10:45:32.398Z,39.97
2022-10-18T10:48:48.770Z,44.00
2022-10-18T10:52:08.488Z,34.70
2022-10-18T10:55:34.957Z,40.95
2022-10-18T10:58:43.443Z,41.03
2022-10-18T11:01:51.607Z,39.40
2022-10-18T11:04:58.172Z,30.52
2022-10-18T11:08:06.677Z,41.67
2022-10-18T11:11:28.248Z,45.25
2022-10-18T11:14:40.775Z,57.92
2022-10-18T11:17:58.995Z,70.35
2022-10-18T11:21:26.854Z,60.95
2022-10-18T11:24:34.666Z,65.88
2022-10-18T11:27:57.205Z,51.60
2022-10-18T11:31:18.447Z,70.82
2022-10-18T11:34:38.189Z,56.03
2022-10-18T11:38:16.988Z,47.50
2022-10-18T11:41:31.916Z,84.85
2022-10-18T11:44:37.499Z,69.82
2022-10-18T11:47:42.221Z,90.75
2022-10-18T11:50:57.714Z,66.05
2022-10-18T11:54:23.720Z,68.22
2022-10-18T11:58:02.503Z,79.10
2022-10-18T12:04:30.412Z,104.20
2022-10-18T12:07:45.910Z,82.10
2022-10-18T12:11:05.463Z,83.65
2022-10-18T12:14:35.047Z,100.95
2022-10-18T12:17:50.485Z,107.05
2022-10-18T12:21:01.152Z,97.72
2022-10-18T12:24:21.472Z,104.47
2022-10-18T12:27:53.409Z,112.53
2022-10-18T12:31:26.998Z,127.80
2022-10-18T12:34:50.043Z,168.38
2022-10-18T12:38:20.609Z,129.82
2022-10-18T12:41:36.383Z,110.50
2022-10-18T12:44:50.488Z,142.38
2022-10-18T12:48:01.279Z,122.60
2022-10-18T12:51:21.609Z,105.60
2022-10-18T12:54:37.732Z,112.45
2022-10-18T12:57:56.820Z,165.38
2022-10-18T13:01:06.843Z,131.98
2022-10-18T13:04:33.754Z,184.40
2022-10-18T13:10:47.483Z,261.92
2022-10-18T13:14:28.551Z,187.82
2022-10-18T13:17:45.618Z,212.55
2022-10-18T13:21:11.726Z,219.95
2022-10-18T13:24:37.611Z,209.95
2022-10-18T13:28:05.939Z,223.85
2022-10-18T13:31:43.562Z,196.35
2022-10-18T13:34:46.946Z,165.30
2022-10-18T13:38:00.873Z,169.77
2022-10-18T13:41:16.497Z,163.50
2022-10-18T13:44:38.269Z,188.55
2022-10-18T13:47:41.888Z,163.95
2022-10-18T13:50:46.656Z,173.70
2022-10-18T13:54:15.354Z,163.85
2022-10-18T13:57:36.829Z,147.52
2022-10-18T14:01:14.101Z,150.77
2022-10-18T14:04:44.236Z,138.95
2022-10-18T14:08:04.675Z,143.77
2022-10-18T14:11:40.327Z,142.80
2022-10-18T14:14:59.027Z,134.37
2022-10-18T14:18:16.468Z,109.53
2022-10-18T14:21:32.644Z,107.13
2022-10-18T14:24:44.768Z,107.68
2022-10-18T14:27:53.625Z,94.63
2022-10-18T14:31:02.713Z,92.38
2022-10-18T14:34:12.001Z,104.82
2022-10-18T14:37:28.233Z,83.65
2022-10-18T14:40:42.312Z,105.07
2022-10-18T14:43:48.744Z,92.22
2022-10-18T14:47:01.000Z,98.60
2022-10-18T14:50:05.332Z,86.95
2022-10-18T14:53:19.030Z,72.85
2022-10-18T14:56:29.576Z,89.82
2022-10-18T14:59:40.840Z,110.10
2022-10-18T15:02:44.428Z,119.68
2022-10-18T15:06:00.870Z,123.47
2022-10-18T15:09:07.432Z,126.10
2022-10-18T15:12:16.054Z,79.70
2022-10-18T15:15:22.811Z,71.05
2022-10-18T15:21:33.657Z,49.78
2022-10-18T15:24:53.713Z,61.00
2022-10-18T15:27:59.466Z,72.57
2022-10-18T15:31:02.905Z,63.42
2022-10-18T15:34:16.850Z,98.20
2022-10-18T15:37:36.647Z,82.55
2022-10-18T15:40:41.076Z,61.47
2022-10-18T15:43:44.602Z,62.67
2022-10-18T15:47:11.806Z,74.70
2022-10-18T15:50:39.168Z,65.22
2022-10-18T15:53:54.354Z,48.30
2022-10-18T15:57:02.037Z,56.85
2022-10-18T16:00:19.877Z,53.72
2022-10-18T16:03:26.763Z,45.58
2022-10-18T16:06:37.120Z,50.57
2022-10-18T16:09:45.141Z,62.22
2022-10-18T16:16:01.455Z,53.40
2022-10-18T16:19:10.545Z,60.43
2022-10-18T16:22:19.316Z,68.28
2022-10-18T16:25:26.001Z,67.13
2022-10-18T16:28:34.059Z,76.47
2022-10-18T16:31:43.031Z,70.50
2022-10-18T16:34:49.701Z,72.63
2022-10-18T16:37:56.897Z,41.22
2022-10-18T16:41:04.193Z,36.80
2022-10-18T16:44:12.192Z,45.85
2022-10-18T16:47:20.724Z,23.52
2022-10-18T16:50:29.063Z,27.25
2022-10-18T16:53:38.777Z,33.67
2022-10-18T16:56:46.381Z,24.08
2022-10-18T16:59:54.893Z,27.45
2022-10-18T17:03:04.537Z,30.02
2022-10-18T17:06:19.203Z,30.42
2022-10-18T17:09:29.357Z,32.42
2022-10-18T17:12:38.299Z,34.75
2022-10-18T17:15:46.923Z,36.28
2022-10-18T17:18:55.535Z,31.15
2022-10-18T17:22:04.465Z,32.15
2022-10-18T17:25:12.984Z,29.20
2022-10-18T17:28:22.328Z,26.85
2022-10-18T17:31:31.157Z,30.20
2022-10-18T17:37:50.541Z,25.80
2022-10-18T17:40:59.268Z,28.20
2022-10-18T17:44:07.584Z,19.23
2022-10-18T17:47:16.727Z,22.60
2022-10-18T17:50:25.963Z,17.25
2022-10-18T17:53:37.424Z,20.50
2022-10-18T17:56:44.030Z,22.88
2022-10-18T17:59:53.051Z,18.77
2022-10-18T18:03:01.527Z,27.63
2022-10-18T18:06:26.988Z,15.68
2022-10-18T18:09:39.304Z,22.50
2022-10-18T18:12:48.734Z,29.20
2022-10-18T18:15:57.976Z,21.38
2022-10-18T18:19:09.804Z,21.30
2022-10-18T18:22:16.659Z,18.85
2022-10-18T18:25:25.172Z,16.38
2022-10-18T18:28:34.808Z,16.35
2022-10-18T18:31:43.797Z,13.40
2022-10-18T18:34:52.781Z,15.25
2022-10-18T18:41:20.673Z,15.13
2022-10-18T18:44:30.216Z,14.63
2022-10-18T18:47:39.057Z,20.13
2022-10-18T18:50:53.196Z,15.00
2022-10-18T18:54:01.491Z,8.57
2022-10-18T18:57:10.750Z,13.80
2022-10-18T19:00:18.554Z,12.20
2022-10-18T19:03:29.734Z,14.68
2022-10-18T19:06:48.079Z,16.55
2022-10-18T19:09:56.294Z,14.40
2022-10-18T19:13:04.712Z,12.32
2022-10-18T19:16:26.041Z,16.33
2022-10-18T19:19:33.420Z,18.13
2022-10-18T19:22:42.045Z,19.65
2022-10-18T19:25:49.649Z,21.67
2022-10-18T19:28:56.883Z,12.93
2022-10-18T19:32:07.815Z,15.88
2022-10-18T19:35:16.639Z,14.98
2022-10-18T19:38:25.569Z,16.92
2022-10-18T19:41:35.524Z,17.85
2022-10-18T19:44:44.357Z,14.02
2022-10-18T19:47:53.278Z,18.00
2022-10-18T19:51:07.933Z,17.92
2022-10-18T19:54:19.639Z,13.90
2022-10-18T19:57:28.665Z,12.23
2022-10-18T20:00:37.913Z,10.00
2022-10-18T20:03:46.831Z,13.15
2022-10-18T20:06:54.954Z,12.48
2022-10-18T20:10:01.427Z,14.13
2022-10-18T20:13:08.415Z,11.80
2022-10-18T20:16:17.335Z,11.98
2022-10-18T20:19:25.646Z,17.75
2022-10-18T20:22:36.093Z,17.02
2022-10-18T20:25:44.628Z,10.38
2022-10-18T20:28:58.762Z,11.88
2022-10-18T20:32:08.328Z,12.65
2022-10-18T20:35:16.334Z,13.57
2022-10-18T20:38:26.081Z,13.48
2022-10-18T20:41:42.996Z,11.48
2022-10-18T20:44:50.493Z,10.50
2022-10-18T20:47:58.296Z,9.18
2022-10-18T20:51:15.624Z,9.07
2022-10-18T20:54:23.121Z,10.20
2022-10-18T20:57:36.530Z,13.02
2022-10-18T21:00:45.282Z,7.80
2022-10-18T21:03:54.926Z,12.30
2022-10-18T21:07:02.625Z,11.40
2022-10-18T21:10:13.499Z,10.93
2022-10-18T21:13:22.023Z,12.93
2022-10-18T21:16:31.460Z,16.65
2022-10-18T21:19:40.493Z,15.70
2022-10-18T21:22:49.834Z,17.15
2022-10-18T21:25:59.290Z,16.67
2022-10-18T21:29:09.075Z,16.30
2022-10-18T21:32:17.956Z,15.00
2022-10-18T21:35:27.091Z,13.50
2022-10-18T21:38:35.708Z,17.33
2022-10-18T21:41:44.846Z,16.83
2022-10-18T21:44:53.975Z,15.43
2022-10-18T21:48:02.092Z,17.90
2022-10-18T21:51:10.209Z,21.42
2022-10-18T21:54:20.972Z,21.73
2022-10-18T21:57:30.366Z,21.65
2022-10-18T22:00:38.961Z,29.35
2022-10-18T22:03:47.553Z,26.70
2022-10-18T22:10:04.083Z,31.38
2022-10-18T22:13:13.020Z,14.18
2022-10-18T22:16:22.142Z,17.95
2022-10-18T22:19:30.879Z,16.13
2022-10-18T22:22:36.127Z,19.65
2022-10-18T22:25:40.152Z,18.38
2022-10-18T22:28:46.056Z,19.42
2022-10-18T22:31:51.985Z,20.67
2022-10-18T22:34:56.109Z,18.30
2022-10-18T22:37:59.985Z,20.27
2022-10-18T22:41:08.293Z,22.63
2022-10-18T22:44:15.869Z,25.80
2022-10-18T22:47:19.785Z,17.75
2022-10-18T22:50:23.447Z,18.38
2022-10-18T22:53:27.745Z,19.02
2022-10-18T22:56:30.742Z,15.32
2022-10-18T22:59:34.757Z,19.70
2022-10-18T23:02:38.439Z,21.40
2022-10-18T23:05:44.449Z,22.40
2022-10-18T23:08:47.946Z,16.05
2022-10-18T23:11:53.802Z,22.30
2022-10-18T23:14:57.646Z,20.00
2022-10-18T23:18:02.897Z,18.15
2022-10-18T23:21:09.763Z,19.27
2022-10-18T23:24:14.755Z,16.80
2022-10-18T23:27:19.555Z,14.40
2022-10-18T23:30:25.421Z,15.80
2022-10-18T23:33:30.515Z,28.27
2022-10-18T23:36:35.731Z,18.70
2022-10-18T23:39:40.936Z,14.23
2022-10-18T23:42:46.230Z,18.60
2022-10-18T23:45:50.130Z,17.38
2022-10-18T23:48:55.958Z,23.63
2022-10-18T23:52:00.270Z,30.38
2022-10-18T23:55:08.385Z,25.85
2022-10-18T23:58:14.649Z,13.85
